Aviation Digital Data Service (ADDS)

Output produced by METARs form (0227 UTC 22 July 2018)
found at http://aviationweather.gov/adds/metars/
 
METAR text: KXLL 220215Z AUTO 06013G20KT 7SM RA OVC011 17/17 A2988 RMK AO2 P0001
Conditions at: KXLL (ALLENTOWN QUEEN , PA, US) observed 0215 UTC 22 July 2018
Temperature: 17.0°C (63°F)
Dewpoint: 17.0°C (63°F) [RH = 100%]
Pressure (altimeter): 29.88 inches Hg (1011.9 mb)
Winds: from the ENE (60 degrees) at 15 MPH (13 knots; 6.8 m/s)
gusting to 23 MPH (20 knots; 10.4 m/s)
Visibility: 7 miles (11 km)
Ceiling: 1100 feet AGL
Clouds: overcast cloud deck at 1100 feet AGL
Weather: RA  (rain)